sensor_id;sensor_type;location;lat;lon;timestamp;temperature;humidity
10249;DHT22;5169;50.560;9.714;2023-07-08T00:00:54;19.70;76.80
10249;DHT22;5169;50.560;9.714;2023-07-08T00:03:20;19.50;78.10
10249;DHT22;5169;50.560;9.714;2023-07-08T00:05:55;19.30;78.80
10249;DHT22;5169;50.560;9.714;2023-07-08T00:08:22;19.30;78.70
10249;DHT22;5169;50.560;9.714;2023-07-08T00:10:49;19.30;78.60
10249;DHT22;5169;50.560;9.714;2023-07-08T00:13:17;19.40;79.00
10249;DHT22;5169;50.560;9.714;2023-07-08T00:15:44;19.40;79.30
10249;DHT22;5169;50.560;9.714;2023-07-08T00:18:12;19.30;80.40
10249;DHT22;5169;50.560;9.714;2023-07-08T00:20:44;19.30;80.80
10249;DHT22;5169;50.560;9.714;2023-07-08T00:23:19;19.40;80.10
10249;DHT22;5169;50.560;9.714;2023-07-08T00:25:53;19.50;79.90
10249;DHT22;5169;50.560;9.714;2023-07-08T00:28:20;19.50;80.00
10249;DHT22;5169;50.560;9.714;2023-07-08T00:30:47;19.50;79.00
10249;DHT22;5169;50.560;9.714;2023-07-08T00:33:13;19.30;79.90
10249;DHT22;5169;50.560;9.714;2023-07-08T00:35:43;19.10;80.40
10249;DHT22;5169;50.560;9.714;2023-07-08T00:38:29;19.10;79.50
10249;DHT22;5169;50.560;9.714;2023-07-08T00:46:28;19.00;80.30
10249;DHT22;5169;50.560;9.714;2023-07-08T00:49:57;18.90;80.40
10249;DHT22;5169;50.560;9.714;2023-07-08T00:54:43;19.00;82.00
10249;DHT22;5169;50.560;9.714;2023-07-08T00:57:08;19.00;81.90
10249;DHT22;5169;50.560;9.714;2023-07-08T00:59:57;18.70;83.00
10249;DHT22;5169;50.560;9.714;2023-07-08T01:02:28;18.50;84.80
10249;DHT22;5169;50.560;9.714;2023-07-08T01:05:08;18.60;85.10
10249;DHT22;5169;50.560;9.714;2023-07-08T01:07:54;18.70;84.70
10249;DHT22;5169;50.560;9.714;2023-07-08T01:10:32;18.40;86.20
10249;DHT22;5169;50.560;9.714;2023-07-08T01:13:00;18.30;86.80
10249;DHT22;5169;50.560;9.714;2023-07-08T01:15:35;18.10;87.50
10249;DHT22;5169;50.560;9.714;2023-07-08T01:18:05;18.10;87.60
10249;DHT22;5169;50.560;9.714;2023-07-08T01:20:32;18.10;86.80
10249;DHT22;5169;50.560;9.714;2023-07-08T01:22:59;18.10;87.30
10249;DHT22;5169;50.560;9.714;2023-07-08T01:25:29;18.10;87.70
10249;DHT22;5169;50.560;9.714;2023-07-08T01:27:57;18.10;88.10
10249;DHT22;5169;50.560;9.714;2023-07-08T01:30:23;18.10;88.20
10249;DHT22;5169;50.560;9.714;2023-07-08T01:32:56;18.00;89.60
10249;DHT22;5169;50.560;9.714;2023-07-08T01:35:23;17.90;90.10
10249;DHT22;5169;50.560;9.714;2023-07-08T01:37:59;17.90;90.50
10249;DHT22;5169;50.560;9.714;2023-07-08T01:40:34;18.00;90.80
10249;DHT22;5169;50.560;9.714;2023-07-08T01:43:05;18.00;91.30
10249;DHT22;5169;50.560;9.714;2023-07-08T01:45:38;18.00;91.70
10249;DHT22;5169;50.560;9.714;2023-07-08T01:48:18;18.00;92.20
10249;DHT22;5169;50.560;9.714;2023-07-08T01:50:54;17.80;93.30
10249;DHT22;5169;50.560;9.714;2023-07-08T01:53:33;17.90;93.40
10249;DHT22;5169;50.560;9.714;2023-07-08T01:55:59;17.90;93.90
10249;DHT22;5169;50.560;9.714;2023-07-08T01:58:25;18.00;93.60
10249;DHT22;5169;50.560;9.714;2023-07-08T02:00:59;17.90;93.90
10249;DHT22;5169;50.560;9.714;2023-07-08T02:03:26;17.80;94.40
10249;DHT22;5169;50.560;9.714;2023-07-08T02:05:57;17.70;94.70
10249;DHT22;5169;50.560;9.714;2023-07-08T02:08:23;17.70;94.90
10249;DHT22;5169;50.560;9.714;2023-07-08T02:10:58;17.60;95.10
10249;DHT22;5169;50.560;9.714;2023-07-08T02:13:24;17.60;95.60
10249;DHT22;5169;50.560;9.714;2023-07-08T02:15:54;17.70;95.80
10249;DHT22;5169;50.560;9.714;2023-07-08T02:18:20;17.70;96.00
10249;DHT22;5169;50.560;9.714;2023-07-08T02:20:46;17.70;96.20
10249;DHT22;5169;50.560;9.714;2023-07-08T02:23:18;17.60;96.60
10249;DHT22;5169;50.560;9.714;2023-07-08T02:26:00;17.70;96.60
10249;DHT22;5169;50.560;9.714;2023-07-08T02:28:26;17.60;96.60
10249;DHT22;5169;50.560;9.714;2023-07-08T02:31:01;17.40;96.90
10249;DHT22;5169;50.560;9.714;2023-07-08T02:33:27;17.40;97.30
10249;DHT22;5169;50.560;9.714;2023-07-08T02:35:58;17.40;97.50
10249;DHT22;5169;50.560;9.714;2023-07-08T02:38:24;17.40;97.60
10249;DHT22;5169;50.560;9.714;2023-07-08T02:40:50;17.30;98.10
10249;DHT22;5169;50.560;9.714;2023-07-08T02:43:23;17.40;98.20
10249;DHT22;5169;50.560;9.714;2023-07-08T02:45:50;17.40;98.40
10249;DHT22;5169;50.560;9.714;2023-07-08T02:48:19;17.20;98.60
10249;DHT22;5169;50.560;9.714;2023-07-08T02:50:45;17.20;99.20
10249;DHT22;5169;50.560;9.714;2023-07-08T02:53:11;17.20;99.10
10249;DHT22;5169;50.560;9.714;2023-07-08T02:55:38;17.00;99.60
10249;DHT22;5169;50.560;9.714;2023-07-08T02:58:08;17.00;99.70
10249;DHT22;5169;50.560;9.714;2023-07-08T03:00:34;16.90;99.90
10249;DHT22;5169;50.560;9.714;2023-07-08T03:03:07;16.90;99.90
10249;DHT22;5169;50.560;9.714;2023-07-08T03:05:35;17.00;99.90
10249;DHT22;5169;50.560;9.714;2023-07-08T03:08:09;17.10;99.90
10249;DHT22;5169;50.560;9.714;2023-07-08T03:10:35;17.00;99.90
10249;DHT22;5169;50.560;9.714;2023-07-08T03:13:02;17.00;99.90
10249;DHT22;5169;50.560;9.714;2023-07-08T03:15:28;16.90;99.90
10249;DHT22;5169;50.560;9.714;2023-07-08T03:17:54;17.00;99.90
10249;DHT22;5169;50.560;9.714;2023-07-08T03:20:25;17.00;99.90
10249;DHT22;5169;50.560;9.714;2023-07-08T03:22:51;17.10;99.90
10249;DHT22;5169;50.560;9.714;2023-07-08T03:25:17;17.00;99.90
10249;DHT22;5169;50.560;9.714;2023-07-08T03:27:48;17.00;99.90
10249;DHT22;5169;50.560;9.714;2023-07-08T03:30:16;16.90;99.90
10249;DHT22;5169;50.560;9.714;2023-07-08T03:32:43;16.70;99.90
10249;DHT22;5169;50.560;9.714;2023-07-08T03:35:12;16.70;99.90
10249;DHT22;5169;50.560;9.714;2023-07-08T03:37:38;16.80;99.90
10249;DHT22;5169;50.560;9.714;2023-07-08T03:40:07;16.80;99.90
10249;DHT22;5169;50.560;9.714;2023-07-08T03:42:39;16.80;99.90
10249;DHT22;5169;50.560;9.714;2023-07-08T03:45:05;16.80;99.90
10249;DHT22;5169;50.560;9.714;2023-07-08T03:47:31;16.70;99.90
10249;DHT22;5169;50.560;9.714;2023-07-08T03:49:59;16.60;99.90
10249;DHT22;5169;50.560;9.714;2023-07-08T03:52:25;16.70;99.90
10249;DHT22;5169;50.560;9.714;2023-07-08T03:54:52;16.60;99.90
10249;DHT22;5169;50.560;9.714;2023-07-08T03:57:17;16.60;99.90
10249;DHT22;5169;50.560;9.714;2023-07-08T03:59:43;16.50;99.90
10249;DHT22;5169;50.560;9.714;2023-07-08T04:02:11;16.50;99.90
10249;DHT22;5169;50.560;9.714;2023-07-08T04:04:37;16.50;99.90
10249;DHT22;5169;50.560;9.714;2023-07-08T04:07:06;16.60;99.90
10249;DHT22;5169;50.560;9.714;2023-07-08T04:09:35;16.70;99.90
10249;DHT22;5169;50.560;9.714;2023-07-08T04:12:03;16.90;99.90
10249;DHT22;5169;50.560;9.714;2023-07-08T04:14:30;17.00;99.90
10249;DHT22;5169;50.560;9.714;2023-07-08T04:16:59;16.90;99.90
10249;DHT22;5169;50.560;9.714;2023-07-08T04:19:25;16.70;99.90
10249;DHT22;5169;50.560;9.714;2023-07-08T04:21:55;16.70;99.90
10249;DHT22;5169;50.560;9.714;2023-07-08T04:24:26;16.50;99.90
10249;DHT22;5169;50.560;9.714;2023-07-08T04:26:52;16.60;99.90
10249;DHT22;5169;50.560;9.714;2023-07-08T04:29:20;16.80;99.90
10249;DHT22;5169;50.560;9.714;2023-07-08T04:31:51;16.70;99.90
10249;DHT22;5169;50.560;9.714;2023-07-08T04:34:19;16.90;99.90
10249;DHT22;5169;50.560;9.714;2023-07-08T04:36:48;16.80;99.90
10249;DHT22;5169;50.560;9.714;2023-07-08T04:39:19;16.80;99.90
10249;DHT22;5169;50.560;9.714;2023-07-08T04:41:44;17.00;99.90
10249;DHT22;5169;50.560;9.714;2023-07-08T04:44:13;17.00;99.90
10249;DHT22;5169;50.560;9.714;2023-07-08T04:46:54;17.10;99.90
10249;DHT22;5169;50.560;9.714;2023-07-08T04:49:31;17.00;99.90
10249;DHT22;5169;50.560;9.714;2023-07-08T04:52:02;17.10;99.90
10249;DHT22;5169;50.560;9.714;2023-07-08T04:54:28;17.10;99.90
10249;DHT22;5169;50.560;9.714;2023-07-08T04:56:54;17.20;99.90
10249;DHT22;5169;50.560;9.714;2023-07-08T04:59:29;17.30;99.90
10249;DHT22;5169;50.560;9.714;2023-07-08T05:02:00;17.30;99.90
10249;DHT22;5169;50.560;9.714;2023-07-08T05:04:26;17.20;99.90
10249;DHT22;5169;50.560;9.714;2023-07-08T05:07:01;17.30;99.90
10249;DHT22;5169;50.560;9.714;2023-07-08T05:09:27;17.50;99.90
10249;DHT22;5169;50.560;9.714;2023-07-08T05:11:53;17.70;99.90
10249;DHT22;5169;50.560;9.714;2023-07-08T05:14:19;17.60;99.90
10249;DHT22;5169;50.560;9.714;2023-07-08T05:16:53;17.70;99.90
10249;DHT22;5169;50.560;9.714;2023-07-08T05:19:19;17.70;99.90
10249;DHT22;5169;50.560;9.714;2023-07-08T05:21:50;17.80;99.90
10249;DHT22;5169;50.560;9.714;2023-07-08T05:24:16;17.80;99.90
10249;DHT22;5169;50.560;9.714;2023-07-08T05:26:41;18.00;99.90
10249;DHT22;5169;50.560;9.714;2023-07-08T05:29:07;18.20;99.90
10249;DHT22;5169;50.560;9.714;2023-07-08T05:31:40;18.40;99.90
10249;DHT22;5169;50.560;9.714;2023-07-08T05:34:15;18.70;99.90
10249;DHT22;5169;50.560;9.714;2023-07-08T05:36:43;18.90;99.90
10249;DHT22;5169;50.560;9.714;2023-07-08T05:39:16;18.90;99.90
10249;DHT22;5169;50.560;9.714;2023-07-08T05:41:49;18.90;99.70
10249;DHT22;5169;50.560;9.714;2023-07-08T05:44:15;18.90;99.50
10249;DHT22;5169;50.560;9.714;2023-07-08T05:46:40;19.10;99.90
10249;DHT22;5169;50.560;9.714;2023-07-08T05:49:06;19.50;99.70
10249;DHT22;5169;50.560;9.714;2023-07-08T05:51:33;20.60;98.30
10249;DHT22;5169;50.560;9.714;2023-07-08T05:54:04;21.20;96.90
10249;DHT22;5169;50.560;9.714;2023-07-08T05:56:35;22.70;94.20
10249;DHT22;5169;50.560;9.714;2023-07-08T05:59:02;23.90;92.00
10249;DHT22;5169;50.560;9.714;2023-07-08T06:01:30;24.50;90.50
10249;DHT22;5169;50.560;9.714;2023-07-08T06:04:02;24.60;87.50
10249;DHT22;5169;50.560;9.714;2023-07-08T06:06:30;24.30;88.60
10249;DHT22;5169;50.560;9.714;2023-07-08T06:08:55;24.60;87.60
10249;DHT22;5169;50.560;9.714;2023-07-08T06:11:21;25.20;86.50
10249;DHT22;5169;50.560;9.714;2023-07-08T06:13:55;25.20;84.50
10249;DHT22;5169;50.560;9.714;2023-07-08T06:16:29;25.40;85.80
10249;DHT22;5169;50.560;9.714;2023-07-08T06:19:03;26.10;83.10
10249;DHT22;5169;50.560;9.714;2023-07-08T06:21:31;26.60;82.00
10249;DHT22;5169;50.560;9.714;2023-07-08T06:23:57;27.70;79.30
10249;DHT22;5169;50.560;9.714;2023-07-08T06:26:26;28.10;76.30
10249;DHT22;5169;50.560;9.714;2023-07-08T06:28:54;28.10;75.30
10249;DHT22;5169;50.560;9.714;2023-07-08T06:31:20;26.90;76.60
10249;DHT22;5169;50.560;9.714;2023-07-08T06:33:51;26.40;78.90
10249;DHT22;5169;50.560;9.714;2023-07-08T06:36:16;26.90;78.70
10249;DHT22;5169;50.560;9.714;2023-07-08T06:38:42;26.70;77.80
10249;DHT22;5169;50.560;9.714;2023-07-08T06:41:08;26.40;76.60
10249;DHT22;5169;50.560;9.714;2023-07-08T06:43:33;25.60;78.10
10249;DHT22;5169;50.560;9.714;2023-07-08T06:45:59;25.30;82.60
10249;DHT22;5169;50.560;9.714;2023-07-08T06:48:27;25.20;84.00
10249;DHT22;5169;50.560;9.714;2023-07-08T06:50:56;25.50;82.10
10249;DHT22;5169;50.560;9.714;2023-07-08T06:53:22;25.70;81.70
10249;DHT22;5169;50.560;9.714;2023-07-08T06:55:51;25.70;82.30
10249;DHT22;5169;50.560;9.714;2023-07-08T06:58:16;26.10;82.50
10249;DHT22;5169;50.560;9.714;2023-07-08T07:00:45;26.20;82.10
10249;DHT22;5169;50.560;9.714;2023-07-08T07:03:12;26.00;79.70
10249;DHT22;5169;50.560;9.714;2023-07-08T07:05:41;26.00;77.30
10249;DHT22;5169;50.560;9.714;2023-07-08T07:08:06;26.10;76.20
10249;DHT22;5169;50.560;9.714;2023-07-08T07:10:33;25.70;76.30
10249;DHT22;5169;50.560;9.714;2023-07-08T07:13:06;25.70;75.10
10249;DHT22;5169;50.560;9.714;2023-07-08T07:15:32;25.80;75.00
10249;DHT22;5169;50.560;9.714;2023-07-08T07:17:58;25.50;75.60
10249;DHT22;5169;50.560;9.714;2023-07-08T07:20:24;25.80;76.00
10249;DHT22;5169;50.560;9.714;2023-07-08T07:22:55;26.00;75.40
10249;DHT22;5169;50.560;9.714;2023-07-08T07:25:21;25.90;74.80
10249;DHT22;5169;50.560;9.714;2023-07-08T07:27:47;25.90;76.90
10249;DHT22;5169;50.560;9.714;2023-07-08T07:30:16;25.80;75.30
10249;DHT22;5169;50.560;9.714;2023-07-08T07:32:42;25.90;76.90
10249;DHT22;5169;50.560;9.714;2023-07-08T07:35:11;26.10;76.80
10249;DHT22;5169;50.560;9.714;2023-07-08T07:37:42;26.10;74.70
10249;DHT22;5169;50.560;9.714;2023-07-08T07:40:15;26.10;75.20
10249;DHT22;5169;50.560;9.714;2023-07-08T07:42:45;25.90;74.50
10249;DHT22;5169;50.560;9.714;2023-07-08T07:45:21;25.70;77.90
10249;DHT22;5169;50.560;9.714;2023-07-08T07:47:53;25.80;82.80
10249;DHT22;5169;50.560;9.714;2023-07-08T07:50:19;25.90;82.40
10249;DHT22;5169;50.560;9.714;2023-07-08T07:52:45;25.60;82.10
10249;DHT22;5169;50.560;9.714;2023-07-08T07:55:10;25.80;81.80
10249;DHT22;5169;50.560;9.714;2023-07-08T07:57:45;25.70;82.50
10249;DHT22;5169;50.560;9.714;2023-07-08T08:00:16;25.50;83.40
10249;DHT22;5169;50.560;9.714;2023-07-08T08:02:44;25.50;85.00
10249;DHT22;5169;50.560;9.714;2023-07-08T08:05:10;25.30;85.20
10249;DHT22;5169;50.560;9.714;2023-07-08T08:07:40;25.40;85.10
10249;DHT22;5169;50.560;9.714;2023-07-08T08:10:10;25.50;85.60
10249;DHT22;5169;50.560;9.714;2023-07-08T08:12:43;25.70;86.00
10249;DHT22;5169;50.560;9.714;2023-07-08T08:15:19;25.90;85.90
10249;DHT22;5169;50.560;9.714;2023-07-08T08:17:44;26.00;85.90
10249;DHT22;5169;50.560;9.714;2023-07-08T08:20:18;26.60;84.90
10249;DHT22;5169;50.560;9.714;2023-07-08T08:22:47;26.80;83.20
10249;DHT22;5169;50.560;9.714;2023-07-08T08:25:21;27.00;80.90
10249;DHT22;5169;50.560;9.714;2023-07-08T08:27:47;26.80;80.30
10249;DHT22;5169;50.560;9.714;2023-07-08T08:30:13;27.30;77.80
10249;DHT22;5169;50.560;9.714;2023-07-08T08:32:48;27.50;74.50
10249;DHT22;5169;50.560;9.714;2023-07-08T08:35:23;27.40;72.90
10249;DHT22;5169;50.560;9.714;2023-07-08T08:37:49;27.70;73.70
10249;DHT22;5169;50.560;9.714;2023-07-08T08:40:18;27.90;72.40
10249;DHT22;5169;50.560;9.714;2023-07-08T08:42:57;28.10;71.20
10249;DHT22;5169;50.560;9.714;2023-07-08T08:45:24;28.60;72.30
10249;DHT22;5169;50.560;9.714;2023-07-08T08:48:00;28.60;67.60
10249;DHT22;5169;50.560;9.714;2023-07-08T08:53:14;29.30;66.70
10249;DHT22;5169;50.560;9.714;2023-07-08T08:55:47;29.40;65.30
10249;DHT22;5169;50.560;9.714;2023-07-08T08:58:33;29.10;65.40
10249;DHT22;5169;50.560;9.714;2023-07-08T09:01:11;29.10;62.50
10249;DHT22;5169;50.560;9.714;2023-07-08T09:06:25;28.70;66.10
10249;DHT22;5169;50.560;9.714;2023-07-08T09:09:02;28.70;64.50
10249;DHT22;5169;50.560;9.714;2023-07-08T09:12:01;28.40;64.40
10249;DHT22;5169;50.560;9.714;2023-07-08T09:14:35;28.10;65.00
10249;DHT22;5169;50.560;9.714;2023-07-08T09:17:22;28.20;67.90
10249;DHT22;5169;50.560;9.714;2023-07-08T09:27:48;29.90;64.70
10249;DHT22;5169;50.560;9.714;2023-07-08T09:30:16;30.20;64.30
10249;DHT22;5169;50.560;9.714;2023-07-08T09:32:46;30.40;59.40
10249;DHT22;5169;50.560;9.714;2023-07-08T09:35:24;30.60;58.50
10249;DHT22;5169;50.560;9.714;2023-07-08T09:38:12;30.90;59.00
10249;DHT22;5169;50.560;9.714;2023-07-08T09:40:38;31.00;58.90
10249;DHT22;5169;50.560;9.714;2023-07-08T09:43:27;31.30;58.70
10249;DHT22;5169;50.560;9.714;2023-07-08T09:46:01;31.50;53.90
10249;DHT22;5169;50.560;9.714;2023-07-08T09:48:35;31.50;54.00
10249;DHT22;5169;50.560;9.714;2023-07-08T09:51:08;31.80;51.20
10249;DHT22;5169;50.560;9.714;2023-07-08T09:53:37;31.70;49.90
10249;DHT22;5169;50.560;9.714;2023-07-08T09:56:04;31.90;51.00
10249;DHT22;5169;50.560;9.714;2023-07-08T09:58:36;31.90;47.90
10249;DHT22;5169;50.560;9.714;2023-07-08T10:01:11;31.90;46.90
10249;DHT22;5169;50.560;9.714;2023-07-08T10:03:43;32.00;48.70
10249;DHT22;5169;50.560;9.714;2023-07-08T10:06:32;32.10;48.20
10249;DHT22;5169;50.560;9.714;2023-07-08T10:09:12;32.30;46.70
10249;DHT22;5169;50.560;9.714;2023-07-08T10:11:48;32.40;46.20
10249;DHT22;5169;50.560;9.714;2023-07-08T10:14:59;32.50;46.10
10249;DHT22;5169;50.560;9.714;2023-07-08T10:17:33;31.90;44.50
10249;DHT22;5169;50.560;9.714;2023-07-08T10:19:59;31.20;44.80
10249;DHT22;5169;50.560;9.714;2023-07-08T10:30:58;31.50;45.80
10249;DHT22;5169;50.560;9.714;2023-07-08T10:33:50;31.90;45.00
10249;DHT22;5169;50.560;9.714;2023-07-08T10:39:39;31.60;45.50
10249;DHT22;5169;50.560;9.714;2023-07-08T10:56:18;39.20;33.70
10249;DHT22;5169;50.560;9.714;2023-07-08T11:09:48;42.10;30.10
10249;DHT22;5169;50.560;9.714;2023-07-08T11:12:45;42.60;29.70
10249;DHT22;5169;50.560;9.714;2023-07-08T11:17:49;42.50;28.50
10249;DHT22;5169;50.560;9.714;2023-07-08T11:20:24;42.20;28.50
10249;DHT22;5169;50.560;9.714;2023-07-08T11:23:36;42.40;28.90
10249;DHT22;5169;50.560;9.714;2023-07-08T11:26:18;42.60;27.70
10249;DHT22;5169;50.560;9.714;2023-07-08T11:28:44;42.10;28.20
10249;DHT22;5169;50.560;9.714;2023-07-08T11:31:17;42.30;27.70
10249;DHT22;5169;50.560;9.714;2023-07-08T11:33:44;42.10;27.60
10249;DHT22;5169;50.560;9.714;2023-07-08T11:36:17;42.40;27.10
10249;DHT22;5169;50.560;9.714;2023-07-08T11:38:52;42.40;26.50
10249;DHT22;5169;50.560;9.714;2023-07-08T11:41:22;42.00;26.70
10249;DHT22;5169;50.560;9.714;2023-07-08T11:43:53;42.00;26.70
10249;DHT22;5169;50.560;9.714;2023-07-08T11:46:32;42.20;26.50
10249;DHT22;5169;50.560;9.714;2023-07-08T11:49:19;42.10;26.60
10249;DHT22;5169;50.560;9.714;2023-07-08T11:51:51;42.20;25.50
10249;DHT22;5169;50.560;9.714;2023-07-08T11:54:30;43.40;24.60
10249;DHT22;5169;50.560;9.714;2023-07-08T11:59:32;43.10;25.40
10249;DHT22;5169;50.560;9.714;2023-07-08T12:02:29;43.00;25.10
10249;DHT22;5169;50.560;9.714;2023-07-08T12:05:15;42.80;25.10
10249;DHT22;5169;50.560;9.714;2023-07-08T12:07:45;41.90;25.90
10249;DHT22;5169;50.560;9.714;2023-07-08T12:12:44;39.00;26.50
10249;DHT22;5169;50.560;9.714;2023-07-08T12:15:11;38.20;28.40
10249;DHT22;5169;50.560;9.714;2023-07-08T12:17:44;37.70;28.60
10249;DHT22;5169;50.560;9.714;2023-07-08T12:20:33;37.20;29.00
10249;DHT22;5169;50.560;9.714;2023-07-08T12:23:00;36.60;30.00
10249;DHT22;5169;50.560;9.714;2023-07-08T12:25:32;36.30;30.20
10249;DHT22;5169;50.560;9.714;2023-07-08T12:28:03;35.50;29.90
10249;DHT22;5169;50.560;9.714;2023-07-08T12:30:31;35.20;31.10
10249;DHT22;5169;50.560;9.714;2023-07-08T12:32:57;35.10;30.70
10249;DHT22;5169;50.560;9.714;2023-07-08T12:35:32;35.00;30.90
10249;DHT22;5169;50.560;9.714;2023-07-08T12:40:58;34.30;31.50
10249;DHT22;5169;50.560;9.714;2023-07-08T12:43:24;34.20;31.80
10249;DHT22;5169;50.560;9.714;2023-07-08T12:45:52;34.00;32.40
10249;DHT22;5169;50.560;9.714;2023-07-08T12:48:20;34.30;34.30
10249;DHT22;5169;50.560;9.714;2023-07-08T12:50:45;34.50;32.30
10249;DHT22;5169;50.560;9.714;2023-07-08T12:53:16;34.10;32.30
10249;DHT22;5169;50.560;9.714;2023-07-08T12:55:45;33.80;33.10
10249;DHT22;5169;50.560;9.714;2023-07-08T12:58:25;33.60;32.00
10249;DHT22;5169;50.560;9.714;2023-07-08T13:00:55;33.60;33.40
10249;DHT22;5169;50.560;9.714;2023-07-08T13:03:33;33.60;33.20
10249;DHT22;5169;50.560;9.714;2023-07-08T13:06:10;33.60;33.10
10249;DHT22;5169;50.560;9.714;2023-07-08T13:08:44;33.60;33.50
10249;DHT22;5169;50.560;9.714;2023-07-08T13:11:24;33.70;33.00
10249;DHT22;5169;50.560;9.714;2023-07-08T13:13:59;33.80;34.20
10249;DHT22;5169;50.560;9.714;2023-07-08T13:16:33;33.80;33.40
10249;DHT22;5169;50.560;9.714;2023-07-08T13:18:59;33.70;34.20
10249;DHT22;5169;50.560;9.714;2023-07-08T13:21:31;33.60;33.90
10249;DHT22;5169;50.560;9.714;2023-07-08T13:24:10;33.50;33.90
10249;DHT22;5169;50.560;9.714;2023-07-08T13:26:45;33.40;34.40
10249;DHT22;5169;50.560;9.714;2023-07-08T13:29:20;33.30;34.00
10249;DHT22;5169;50.560;9.714;2023-07-08T13:31:49;33.30;36.00
10249;DHT22;5169;50.560;9.714;2023-07-08T13:34:19;33.40;35.50
10249;DHT22;5169;50.560;9.714;2023-07-08T13:36:49;33.20;36.60
10249;DHT22;5169;50.560;9.714;2023-07-08T13:39:33;33.00;35.80
10249;DHT22;5169;50.560;9.714;2023-07-08T13:42:00;32.90;37.80
10249;DHT22;5169;50.560;9.714;2023-07-08T13:44:32;32.90;36.90
10249;DHT22;5169;50.560;9.714;2023-07-08T13:47:00;32.80;37.20
10249;DHT22;5169;50.560;9.714;2023-07-08T13:49:43;32.80;37.00
10249;DHT22;5169;50.560;9.714;2023-07-08T13:54:42;33.00;36.80
10249;DHT22;5169;50.560;9.714;2023-07-08T13:57:12;33.10;36.50
10249;DHT22;5169;50.560;9.714;2023-07-08T13:59:40;33.10;37.00
10249;DHT22;5169;50.560;9.714;2023-07-08T14:02:28;33.40;36.20
10249;DHT22;5169;50.560;9.714;2023-07-08T14:05:04;33.60;37.30
10249;DHT22;5169;50.560;9.714;2023-07-08T14:07:34;33.60;35.80
10249;DHT22;5169;50.560;9.714;2023-07-08T14:10:00;33.40;35.60
10249;DHT22;5169;50.560;9.714;2023-07-08T14:12:25;33.40;35.90
10249;DHT22;5169;50.560;9.714;2023-07-08T14:14:51;33.30;35.70
10249;DHT22;5169;50.560;9.714;2023-07-08T14:17:25;33.30;36.60
10249;DHT22;5169;50.560;9.714;2023-07-08T14:19:52;33.30;34.80
10249;DHT22;5169;50.560;9.714;2023-07-08T14:22:30;33.10;35.40
10249;DHT22;5169;50.560;9.714;2023-07-08T14:25:06;33.00;36.20
10249;DHT22;5169;50.560;9.714;2023-07-08T14:27:37;33.10;36.50
10249;DHT22;5169;50.560;9.714;2023-07-08T14:30:06;33.10;37.40
10249;DHT22;5169;50.560;9.714;2023-07-08T14:32:38;33.10;36.00
10249;DHT22;5169;50.560;9.714;2023-07-08T14:35:24;33.00;34.60
10249;DHT22;5169;50.560;9.714;2023-07-08T14:37:51;33.00;35.70
10249;DHT22;5169;50.560;9.714;2023-07-08T14:40:38;32.70;35.30
10249;DHT22;5169;50.560;9.714;2023-07-08T14:43:27;32.40;35.60
10249;DHT22;5169;50.560;9.714;2023-07-08T14:46:03;32.10;36.40
10249;DHT22;5169;50.560;9.714;2023-07-08T14:48:31;32.10;37.50
10249;DHT22;5169;50.560;9.714;2023-07-08T14:51:00;32.20;37.00
10249;DHT22;5169;50.560;9.714;2023-07-08T14:53:25;32.20;37.80
10249;DHT22;5169;50.560;9.714;2023-07-08T14:55:54;32.40;37.30
10249;DHT22;5169;50.560;9.714;2023-07-08T14:58:37;32.50;37.00
10249;DHT22;5169;50.560;9.714;2023-07-08T15:04:11;32.30;37.30
10249;DHT22;5169;50.560;9.714;2023-07-08T15:06:40;32.40;37.80
10249;DHT22;5169;50.560;9.714;2023-07-08T15:09:13;32.50;37.30
10249;DHT22;5169;50.560;9.714;2023-07-08T15:11:43;32.60;37.80
10249;DHT22;5169;50.560;9.714;2023-07-08T15:14:25;32.60;37.60
10249;DHT22;5169;50.560;9.714;2023-07-08T15:16:52;32.40;37.10
10249;DHT22;5169;50.560;9.714;2023-07-08T15:19:19;32.40;37.50
10249;DHT22;5169;50.560;9.714;2023-07-08T15:21:51;32.40;37.90
10249;DHT22;5169;50.560;9.714;2023-07-08T15:24:16;32.10;37.40
10249;DHT22;5169;50.560;9.714;2023-07-08T15:26:48;32.00;38.20
10249;DHT22;5169;50.560;9.714;2023-07-08T15:29:19;32.00;38.50
10249;DHT22;5169;50.560;9.714;2023-07-08T15:31:51;32.00;38.10
10249;DHT22;5169;50.560;9.714;2023-07-08T15:34:26;32.10;37.80
10249;DHT22;5169;50.560;9.714;2023-07-08T15:36:54;32.20;37.80
10249;DHT22;5169;50.560;9.714;2023-07-08T15:39:25;32.20;38.30
10249;DHT22;5169;50.560;9.714;2023-07-08T15:41:52;32.20;37.20
10249;DHT22;5169;50.560;9.714;2023-07-08T15:44:25;32.10;38.90
10249;DHT22;5169;50.560;9.714;2023-07-08T15:46:51;32.20;36.80
10249;DHT22;5169;50.560;9.714;2023-07-08T15:49:25;32.10;37.30
10249;DHT22;5169;50.560;9.714;2023-07-08T15:51:59;32.10;38.00
10249;DHT22;5169;50.560;9.714;2023-07-08T15:54:25;32.00;37.90
10249;DHT22;5169;50.560;9.714;2023-07-08T15:56:53;31.80;38.20
10249;DHT22;5169;50.560;9.714;2023-07-08T15:59:27;31.60;38.50
10249;DHT22;5169;50.560;9.714;2023-07-08T16:02:14;31.50;38.70
10249;DHT22;5169;50.560;9.714;2023-07-08T16:04:40;31.40;38.50
10249;DHT22;5169;50.560;9.714;2023-07-08T16:07:11;31.30;38.20
10249;DHT22;5169;50.560;9.714;2023-07-08T16:09:37;31.20;38.50
10249;DHT22;5169;50.560;9.714;2023-07-08T16:12:04;31.20;38.10
10249;DHT22;5169;50.560;9.714;2023-07-08T16:14:30;31.20;40.00
10249;DHT22;5169;50.560;9.714;2023-07-08T16:16:59;31.10;38.80
10249;DHT22;5169;50.560;9.714;2023-07-08T16:19:27;31.10;39.00
10249;DHT22;5169;50.560;9.714;2023-07-08T16:21:55;31.00;39.80
10249;DHT22;5169;50.560;9.714;2023-07-08T16:24:20;31.00;40.00
10249;DHT22;5169;50.560;9.714;2023-07-08T16:26:46;31.00;39.20
10249;DHT22;5169;50.560;9.714;2023-07-08T16:29:15;31.00;39.90
10249;DHT22;5169;50.560;9.714;2023-07-08T16:32:10;31.10;39.80
10249;DHT22;5169;50.560;9.714;2023-07-08T16:34:42;31.20;39.20
10249;DHT22;5169;50.560;9.714;2023-07-08T16:37:08;31.20;39.70
10249;DHT22;5169;50.560;9.714;2023-07-08T16:39:33;31.10;41.50
10249;DHT22;5169;50.560;9.714;2023-07-08T16:42:13;31.10;40.40
10249;DHT22;5169;50.560;9.714;2023-07-08T16:44:45;31.10;41.20
10249;DHT22;5169;50.560;9.714;2023-07-08T16:47:11;31.20;39.40
10249;DHT22;5169;50.560;9.714;2023-07-08T16:49:39;31.00;40.50
10249;DHT22;5169;50.560;9.714;2023-07-08T16:52:10;31.10;39.70
10249;DHT22;5169;50.560;9.714;2023-07-08T16:54:41;31.10;41.20
10249;DHT22;5169;50.560;9.714;2023-07-08T16:57:10;31.10;41.40
10249;DHT22;5169;50.560;9.714;2023-07-08T16:59:44;31.00;38.40
10249;DHT22;5169;50.560;9.714;2023-07-08T17:02:18;31.00;39.10
10249;DHT22;5169;50.560;9.714;2023-07-08T17:04:56;31.00;38.70
10249;DHT22;5169;50.560;9.714;2023-07-08T17:07:27;31.00;39.60
10249;DHT22;5169;50.560;9.714;2023-07-08T17:09:53;30.90;40.50
10249;DHT22;5169;50.560;9.714;2023-07-08T17:12:18;30.80;39.80
10249;DHT22;5169;50.560;9.714;2023-07-08T17:14:46;30.80;40.90
10249;DHT22;5169;50.560;9.714;2023-07-08T17:17:15;30.60;40.40
10249;DHT22;5169;50.560;9.714;2023-07-08T17:19:44;30.50;40.60
10249;DHT22;5169;50.560;9.714;2023-07-08T17:22:10;30.40;40.30
10249;DHT22;5169;50.560;9.714;2023-07-08T17:24:43;30.30;40.30